createdAt,value
2018-08-19T00:47:00.339Z,7.75
2018-08-19T00:52:01.899Z,8.45
2018-08-19T00:56:55.832Z,8.63
2018-08-19T01:01:49.095Z,6.85
2018-08-19T01:06:48.134Z,10.93
2018-08-19T02:16:23.063Z,8.70
2018-08-19T02:21:16.392Z,8.10
2018-08-19T02:26:09.844Z,11.40
2018-08-19T02:31:03.173Z,9.95
2018-08-19T02:36:01.021Z,11.68
2018-08-19T03:45:47.938Z,8.50
2018-08-19T03:50:41.191Z,12.85
2018-08-19T03:55:37.221Z,11.05
2018-08-19T04:00:32.340Z,9.83
2018-08-19T04:05:43.078Z,10.95
2018-08-19T05:15:30.330Z,10.58
2018-08-19T05:20:23.647Z,9.50
2018-08-19T05:25:16.950Z,14.98
2018-08-19T05:30:10.805Z,10.88
2018-08-19T06:39:36.748Z,8.05
2018-08-19T06:44:30.022Z,10.05
2018-08-19T06:49:26.274Z,8.33
2018-08-19T06:54:19.552Z,8.90
2018-08-19T07:36:55.162Z,7.85
2018-08-19T07:41:48.394Z,5.65
2018-08-19T07:46:41.622Z,5.65
2018-08-19T07:51:34.947Z,4.95
2018-08-19T07:56:28.231Z,4.78
2018-08-19T08:01:21.489Z,3.35
2018-08-19T08:06:14.753Z,4.53
2018-08-19T08:11:08.009Z,3.90
2018-08-19T08:16:01.805Z,4.58
2018-08-19T08:21:00.870Z,5.90
2018-08-19T08:25:54.201Z,7.03
2018-08-19T08:30:47.411Z,4.45
2018-08-19T08:35:45.228Z,6.12
2018-08-19T08:40:38.464Z,5.70
2018-08-19T08:45:36.260Z,4.10
2018-08-19T08:50:29.547Z,4.37
2018-08-19T08:55:22.873Z,5.17
2018-08-19T09:00:16.115Z,5.25
2018-08-19T09:05:11.403Z,3.85
2018-08-19T09:10:05.502Z,6.03
2018-08-19T09:14:58.771Z,7.08
2018-08-19T09:19:52.084Z,5.72
2018-08-19T09:24:45.341Z,7.40
2018-08-19T09:29:38.586Z,6.65
2018-08-19T09:34:31.861Z,8.25
2018-08-19T09:39:25.166Z,7.90
2018-08-19T09:44:18.592Z,5.05
2018-08-19T09:49:11.829Z,6.17
2018-08-19T09:54:06.107Z,4.42
2018-08-19T09:59:05.028Z,6.60
2018-08-19T10:03:58.484Z,4.42
2018-08-19T10:08:51.756Z,5.50
2018-08-19T10:13:47.402Z,6.12
2018-08-19T10:18:40.623Z,5.40
2018-08-19T10:23:33.974Z,6.33
2018-08-19T10:28:27.262Z,6.95
2018-08-19T10:33:21.697Z,7.50
2018-08-19T10:38:16.046Z,7.95
2018-08-19T10:43:10.119Z,6.70
2018-08-19T10:48:03.676Z,6.83
2018-08-19T10:52:56.960Z,8.85
2018-08-19T10:57:50.263Z,8.35
2018-08-19T11:02:43.599Z,7.90
2018-08-19T11:07:36.902Z,8.53
2018-08-19T11:12:30.234Z,8.20
2018-08-19T11:17:23.579Z,7.92
2018-08-19T11:22:17.463Z,6.75
2018-08-19T11:27:10.753Z,6.80
2018-08-19T11:32:04.146Z,5.62
2018-08-19T11:36:57.371Z,8.38
2018-08-19T11:41:50.677Z,6.58
2018-08-19T11:46:43.966Z,6.75
2018-08-19T11:51:58.883Z,6.75
2018-08-19T11:57:00.772Z,8.40
2018-08-19T12:01:54.044Z,6.83
2018-08-19T12:06:47.304Z,8.10
2018-08-19T12:11:41.412Z,7.33
2018-08-19T12:16:47.094Z,6.45
2018-08-19T12:21:44.825Z,8.00
2018-08-19T12:26:42.434Z,8.65
2018-08-19T12:31:35.865Z,7.78
2018-08-19T12:36:29.182Z,6.75
2018-08-19T12:41:22.503Z,7.85
2018-08-19T12:46:15.768Z,6.72
2018-08-19T12:51:09.114Z,6.58
2018-08-19T12:56:02.345Z,6.40
2018-08-19T13:00:55.601Z,5.47
2018-08-19T13:06:04.118Z,5.92
2018-08-19T13:11:01.559Z,9.38
2018-08-19T13:15:54.915Z,8.03
2018-08-19T13:20:48.167Z,6.28
2018-08-19T13:25:41.397Z,5.90
2018-08-19T13:30:34.729Z,7.22
2018-08-19T13:35:28.048Z,5.80
2018-08-19T13:40:21.343Z,8.48
2018-08-19T13:45:17.742Z,7.10
2018-08-19T13:50:11.252Z,5.58
2018-08-19T13:55:08.132Z,5.90
2018-08-19T14:00:01.451Z,6.45
2018-08-19T14:04:54.695Z,6.25
2018-08-19T14:09:47.986Z,6.67
2018-08-19T14:14:41.191Z,5.80
2018-08-19T14:19:34.396Z,6.25
2018-08-19T14:24:27.606Z,6.10
2018-08-19T14:29:20.880Z,6.30
2018-08-19T14:34:14.124Z,6.37
2018-08-19T14:39:07.427Z,9.55
2018-08-19T14:44:02.474Z,6.65
2018-08-19T14:48:57.733Z,7.25
2018-08-19T14:53:50.987Z,7.20
2018-08-19T14:58:45.104Z,7.58
2018-08-19T15:03:44.182Z,6.95
2018-08-19T15:08:37.452Z,6.60
2018-08-19T15:13:30.694Z,8.83
2018-08-19T15:18:24.834Z,7.83
2018-08-19T15:23:19.862Z,9.93
2018-08-19T15:28:13.357Z,8.00
2018-08-19T15:33:06.935Z,8.00
2018-08-19T15:38:00.490Z,8.10
2018-08-19T15:42:53.752Z,7.47
2018-08-19T15:47:46.990Z,9.03
2018-08-19T15:52:40.249Z,9.53
2018-08-19T15:57:33.532Z,9.40
2018-08-19T16:02:26.848Z,8.35
2018-08-19T16:07:20.072Z,8.13
2018-08-19T16:12:13.924Z,9.35
2018-08-19T16:17:07.187Z,10.15
2018-08-19T16:22:00.596Z,8.20
2018-08-19T16:26:53.925Z,7.90
2018-08-19T16:31:47.231Z,7.22
2018-08-19T16:36:40.545Z,7.95
2018-08-19T16:41:33.852Z,8.35
2018-08-19T16:46:27.096Z,7.00
2018-08-19T16:51:20.753Z,7.20
2018-08-19T16:56:14.089Z,10.03
2018-08-19T17:01:07.390Z,11.80
2018-08-19T17:06:00.802Z,7.22
2018-08-19T17:10:54.058Z,7.17
2018-08-19T17:15:47.322Z,8.30
2018-08-19T17:20:41.322Z,7.87
2018-08-19T17:25:34.621Z,6.47
2018-08-19T17:30:27.847Z,8.85
2018-08-19T17:35:21.116Z,10.60
2018-08-19T17:40:15.043Z,8.13
2018-08-19T17:45:08.409Z,8.28
2018-08-19T17:50:01.682Z,9.30
2018-08-19T17:54:54.925Z,7.50
2018-08-19T17:59:48.876Z,9.90
2018-08-19T18:04:46.343Z,8.00
2018-08-19T18:09:44.110Z,10.00
2018-08-19T18:14:37.335Z,7.90
2018-08-19T18:19:35.496Z,10.05
2018-08-19T18:24:29.724Z,10.20
2018-08-19T18:29:37.943Z,10.68
2018-08-19T18:34:32.263Z,9.23
2018-08-19T18:39:26.602Z,8.95
2018-08-19T18:44:20.109Z,9.33
2018-08-19T18:49:13.667Z,9.78
2018-08-19T18:54:15.814Z,11.57
2018-08-19T18:59:10.090Z,9.10
2018-08-19T19:04:03.900Z,10.40
2018-08-19T19:08:57.267Z,10.45
2018-08-19T19:13:50.528Z,11.35
2018-08-19T19:18:43.999Z,11.53
2018-08-19T19:23:39.421Z,11.00
2018-08-19T19:33:51.847Z,8.38
2018-08-19T19:39:01.992Z,10.05
2018-08-19T19:44:13.595Z,9.80
2018-08-19T19:49:20.701Z,9.75
2018-08-19T19:54:19.433Z,9.60
2018-08-19T19:59:20.994Z,9.67
2018-08-19T20:04:14.493Z,8.85
2018-08-19T20:09:08.264Z,9.53
2018-08-19T20:14:02.902Z,8.45
2018-08-19T20:18:56.167Z,10.05
2018-08-19T20:23:51.248Z,11.63
2018-08-19T20:28:48.774Z,9.30
2018-08-19T20:33:42.144Z,8.43
2018-08-19T20:38:35.456Z,10.13
2018-08-19T20:43:28.815Z,9.35
2018-08-19T20:48:22.564Z,12.37
2018-08-19T20:53:16.182Z,7.78
2018-08-19T20:58:10.169Z,9.40
2018-08-19T21:03:03.612Z,10.98
2018-08-19T21:08:06.502Z,10.78
2018-08-19T21:12:59.828Z,10.50
2018-08-19T21:17:53.079Z,9.00
2018-08-19T21:22:46.337Z,9.13
2018-08-19T21:27:39.826Z,7.37
2018-08-19T21:32:33.478Z,8.45
2018-08-19T21:37:34.449Z,7.53
2018-08-19T21:42:27.801Z,8.48
2018-08-19T21:47:21.068Z,8.28
2018-08-19T21:52:14.303Z,10.03
2018-08-19T21:57:07.561Z,8.98
2018-08-19T22:02:00.812Z,10.60
2018-08-19T22:06:54.105Z,8.13
2018-08-19T22:11:47.409Z,10.58
2018-08-19T22:16:40.700Z,8.38
2018-08-19T22:21:33.976Z,8.68
2018-08-19T22:26:27.219Z,8.58
2018-08-19T22:31:25.649Z,8.40
2018-08-19T22:36:19.435Z,9.45
2018-08-19T22:41:12.646Z,8.93
2018-08-19T22:46:05.888Z,9.78
2018-08-19T22:50:59.124Z,8.35
2018-08-19T22:55:52.382Z,10.50
2018-08-19T23:00:46.575Z,9.53
2018-08-19T23:05:39.792Z,10.05
2018-08-19T23:10:33.036Z,8.85
2018-08-19T23:15:37.788Z,12.78
2018-08-19T23:20:31.029Z,11.68
2018-08-19T23:25:24.441Z,9.25
2018-08-19T23:30:17.754Z,11.22
2018-08-19T23:35:11.033Z,8.78
2018-08-19T23:40:04.800Z,10.70
2018-08-19T23:44:58.084Z,11.53
2018-08-19T23:49:51.358Z,8.48
2018-08-19T23:54:44.639Z,9.53
2018-08-19T23:59:37.928Z,11.65
